sensor_id;sensor_type;location;lat;lon;timestamp;P1;durP1;ratioP1;P2;durP2;ratioP2
19589;SDS011;12231;42.782;23.388;2023-05-23T00:02:07;5.00;;;3.97;;
19589;SDS011;12231;42.782;23.388;2023-05-23T00:04:33;7.03;;;4.35;;
19589;SDS011;12231;42.782;23.388;2023-05-23T00:07:00;6.87;;;4.63;;
19589;SDS011;12231;42.782;23.388;2023-05-23T00:09:25;7.65;;;4.32;;
19589;SDS011;12231;42.782;23.388;2023-05-23T00:11:50;5.00;;;4.33;;
19589;SDS011;12231;42.782;23.388;2023-05-23T00:14:15;4.93;;;4.13;;
19589;SDS011;12231;42.782;23.388;2023-05-23T00:16:42;6.53;;;4.10;;
19589;SDS011;12231;42.782;23.388;2023-05-23T00:19:09;6.65;;;4.22;;
19589;SDS011;12231;42.782;23.388;2023-05-23T00:21:34;6.37;;;4.40;;
19589;SDS011;12231;42.782;23.388;2023-05-23T00:23:59;4.93;;;4.15;;
19589;SDS011;12231;42.782;23.388;2023-05-23T00:26:26;4.37;;;3.73;;
19589;SDS011;12231;42.782;23.388;2023-05-23T00:28:53;4.97;;;3.50;;
19589;SDS011;12231;42.782;23.388;2023-05-23T00:31:20;6.67;;;3.60;;
19589;SDS011;12231;42.782;23.388;2023-05-23T00:33:45;5.27;;;4.03;;
19589;SDS011;12231;42.782;23.388;2023-05-23T00:36:10;5.97;;;3.90;;
19589;SDS011;12231;42.782;23.388;2023-05-23T00:38:37;6.77;;;3.70;;
19589;SDS011;12231;42.782;23.388;2023-05-23T00:41:03;5.33;;;4.00;;
19589;SDS011;12231;42.782;23.388;2023-05-23T00:43:28;6.70;;;3.83;;
19589;SDS011;12231;42.782;23.388;2023-05-23T00:45:53;6.87;;;3.90;;
19589;SDS011;12231;42.782;23.388;2023-05-23T00:48:19;6.13;;;4.03;;
19589;SDS011;12231;42.782;23.388;2023-05-23T00:50:44;6.07;;;3.43;;
19589;SDS011;12231;42.782;23.388;2023-05-23T00:53:10;5.77;;;4.00;;
19589;SDS011;12231;42.782;23.388;2023-05-23T00:55:36;5.53;;;4.27;;
19589;SDS011;12231;42.782;23.388;2023-05-23T00:58:03;5.10;;;4.20;;
19589;SDS011;12231;42.782;23.388;2023-05-23T01:00:28;5.57;;;4.27;;
19589;SDS011;12231;42.782;23.388;2023-05-23T01:02:54;8.27;;;4.43;;
19589;SDS011;12231;42.782;23.388;2023-05-23T01:05:19;6.00;;;4.23;;
19589;SDS011;12231;42.782;23.388;2023-05-23T01:07:46;7.17;;;4.43;;
19589;SDS011;12231;42.782;23.388;2023-05-23T01:10:12;6.13;;;4.13;;
19589;SDS011;12231;42.782;23.388;2023-05-23T01:15:30;4.37;;;3.47;;
19589;SDS011;12231;42.782;23.388;2023-05-23T01:18:07;7.13;;;5.47;;
19589;SDS011;12231;42.782;23.388;2023-05-23T01:20:35;7.47;;;5.28;;
19589;SDS011;12231;42.782;23.388;2023-05-23T01:25:48;7.22;;;5.30;;
19589;SDS011;12231;42.782;23.388;2023-05-23T01:28:18;14.80;;;8.02;;
19589;SDS011;12231;42.782;23.388;2023-05-23T01:30:44;5.47;;;4.38;;
19589;SDS011;12231;42.782;23.388;2023-05-23T01:33:10;5.03;;;4.03;;
19589;SDS011;12231;42.782;23.388;2023-05-23T01:35:37;4.60;;;3.90;;
19589;SDS011;12231;42.782;23.388;2023-05-23T01:38:02;6.43;;;4.13;;
19589;SDS011;12231;42.782;23.388;2023-05-23T01:40:28;4.77;;;3.83;;
19589;SDS011;12231;42.782;23.388;2023-05-23T01:42:54;4.33;;;3.50;;
19589;SDS011;12231;42.782;23.388;2023-05-23T01:45:21;6.97;;;3.67;;
19589;SDS011;12231;42.782;23.388;2023-05-23T01:47:48;6.07;;;3.93;;
19589;SDS011;12231;42.782;23.388;2023-05-23T01:50:14;5.07;;;3.87;;
19589;SDS011;12231;42.782;23.388;2023-05-23T01:52:39;5.40;;;4.13;;
19589;SDS011;12231;42.782;23.388;2023-05-23T01:55:05;8.73;;;4.57;;
19589;SDS011;12231;42.782;23.388;2023-05-23T01:57:34;6.97;;;4.57;;
19589;SDS011;12231;42.782;23.388;2023-05-23T02:00:00;6.87;;;5.03;;
19589;SDS011;12231;42.782;23.388;2023-05-23T02:02:25;6.80;;;4.70;;
19589;SDS011;12231;42.782;23.388;2023-05-23T02:04:50;6.20;;;4.77;;
19589;SDS011;12231;42.782;23.388;2023-05-23T02:07:17;6.63;;;4.27;;
19589;SDS011;12231;42.782;23.388;2023-05-23T02:09:47;5.63;;;4.60;;
19589;SDS011;12231;42.782;23.388;2023-05-23T02:12:12;10.63;;;5.27;;
19589;SDS011;12231;42.782;23.388;2023-05-23T02:14:37;15.70;;;4.47;;
19589;SDS011;12231;42.782;23.388;2023-05-23T02:17:03;5.53;;;3.50;;
19589;SDS011;12231;42.782;23.388;2023-05-23T02:19:29;9.80;;;4.17;;
19589;SDS011;12231;42.782;23.388;2023-05-23T02:21:54;4.70;;;4.20;;
19589;SDS011;12231;42.782;23.388;2023-05-23T02:24:19;11.07;;;4.57;;
19589;SDS011;12231;42.782;23.388;2023-05-23T02:26:44;5.93;;;4.53;;
19589;SDS011;12231;42.782;23.388;2023-05-23T02:29:10;6.53;;;4.33;;
19589;SDS011;12231;42.782;23.388;2023-05-23T02:31:35;9.20;;;4.67;;
19589;SDS011;12231;42.782;23.388;2023-05-23T02:34:00;13.83;;;5.20;;
19589;SDS011;12231;42.782;23.388;2023-05-23T02:36:26;9.57;;;4.97;;
19589;SDS011;12231;42.782;23.388;2023-05-23T02:38:51;8.73;;;5.47;;
19589;SDS011;12231;42.782;23.388;2023-05-23T02:41:16;11.80;;;6.10;;
19589;SDS011;12231;42.782;23.388;2023-05-23T02:43:43;9.03;;;5.07;;
19589;SDS011;12231;42.782;23.388;2023-05-23T02:46:08;8.23;;;5.60;;
19589;SDS011;12231;42.782;23.388;2023-05-23T02:48:34;19.77;;;6.17;;
19589;SDS011;12231;42.782;23.388;2023-05-23T02:50:59;12.67;;;6.20;;
19589;SDS011;12231;42.782;23.388;2023-05-23T02:53:24;11.23;;;6.17;;
19589;SDS011;12231;42.782;23.388;2023-05-23T02:55:50;21.60;;;6.63;;
19589;SDS011;12231;42.782;23.388;2023-05-23T02:58:15;15.00;;;6.10;;
19589;SDS011;12231;42.782;23.388;2023-05-23T03:00:40;16.67;;;6.67;;
19589;SDS011;12231;42.782;23.388;2023-05-23T03:03:07;9.13;;;6.30;;
19589;SDS011;12231;42.782;23.388;2023-05-23T03:05:32;11.93;;;7.23;;
19589;SDS011;12231;42.782;23.388;2023-05-23T03:07:58;15.83;;;7.37;;
19589;SDS011;12231;42.782;23.388;2023-05-23T03:10:24;12.07;;;6.70;;
19589;SDS011;12231;42.782;23.388;2023-05-23T03:12:49;22.60;;;8.17;;
19589;SDS011;12231;42.782;23.388;2023-05-23T03:15:14;12.83;;;7.87;;
19589;SDS011;12231;42.782;23.388;2023-05-23T03:17:40;13.03;;;7.70;;
19589;SDS011;12231;42.782;23.388;2023-05-23T03:20:05;18.27;;;8.27;;
19589;SDS011;12231;42.782;23.388;2023-05-23T03:22:33;13.20;;;7.17;;
19589;SDS011;12231;42.782;23.388;2023-05-23T03:24:58;14.93;;;7.13;;
19589;SDS011;12231;42.782;23.388;2023-05-23T03:27:24;22.70;;;8.13;;
19589;SDS011;12231;42.782;23.388;2023-05-23T03:29:49;16.10;;;8.60;;
19589;SDS011;12231;42.782;23.388;2023-05-23T03:32:15;30.87;;;8.60;;
19589;SDS011;12231;42.782;23.388;2023-05-23T03:34:40;16.77;;;9.10;;
19589;SDS011;12231;42.782;23.388;2023-05-23T03:37:05;16.47;;;9.00;;
19589;SDS011;12231;42.782;23.388;2023-05-23T03:39:30;15.27;;;9.32;;
19589;SDS011;12231;42.782;23.388;2023-05-23T03:41:56;18.77;;;7.90;;
19589;SDS011;12231;42.782;23.388;2023-05-23T03:44:21;26.53;;;8.47;;
19589;SDS011;12231;42.782;23.388;2023-05-23T03:46:46;13.73;;;8.43;;
19589;SDS011;12231;42.782;23.388;2023-05-23T03:49:11;14.90;;;7.90;;
19589;SDS011;12231;42.782;23.388;2023-05-23T03:51:37;17.87;;;9.23;;
19589;SDS011;12231;42.782;23.388;2023-05-23T03:54:02;14.57;;;7.77;;
19589;SDS011;12231;42.782;23.388;2023-05-23T03:56:27;15.20;;;8.80;;
19589;SDS011;12231;42.782;23.388;2023-05-23T03:58:52;12.63;;;7.78;;
19589;SDS011;12231;42.782;23.388;2023-05-23T04:01:17;15.90;;;7.53;;
19589;SDS011;12231;42.782;23.388;2023-05-23T04:03:43;15.10;;;9.73;;
19589;SDS011;12231;42.782;23.388;2023-05-23T04:06:08;12.93;;;7.93;;
19589;SDS011;12231;42.782;23.388;2023-05-23T04:08:34;19.80;;;7.53;;
19589;SDS011;12231;42.782;23.388;2023-05-23T04:10:59;14.57;;;7.83;;
19589;SDS011;12231;42.782;23.388;2023-05-23T04:13:25;15.97;;;7.53;;
19589;SDS011;12231;42.782;23.388;2023-05-23T04:15:51;12.27;;;7.67;;
19589;SDS011;12231;42.782;23.388;2023-05-23T04:18:16;12.95;;;7.15;;
19589;SDS011;12231;42.782;23.388;2023-05-23T04:20:41;11.05;;;7.47;;
19589;SDS011;12231;42.782;23.388;2023-05-23T04:23:07;9.63;;;7.18;;
19589;SDS011;12231;42.782;23.388;2023-05-23T04:25:32;10.18;;;6.63;;
19589;SDS011;12231;42.782;23.388;2023-05-23T04:27:58;9.18;;;7.03;;
19589;SDS011;12231;42.782;23.388;2023-05-23T04:30:23;13.77;;;7.70;;
19589;SDS011;12231;42.782;23.388;2023-05-23T04:32:49;13.18;;;7.03;;
19589;SDS011;12231;42.782;23.388;2023-05-23T04:35:14;12.23;;;7.38;;
19589;SDS011;12231;42.782;23.388;2023-05-23T04:37:39;13.45;;;7.43;;
19589;SDS011;12231;42.782;23.388;2023-05-23T04:40:06;13.15;;;6.85;;
19589;SDS011;12231;42.782;23.388;2023-05-23T04:42:32;12.02;;;6.85;;
19589;SDS011;12231;42.782;23.388;2023-05-23T04:44:57;9.50;;;6.07;;
19589;SDS011;12231;42.782;23.388;2023-05-23T04:47:22;12.10;;;6.60;;
19589;SDS011;12231;42.782;23.388;2023-05-23T04:49:48;12.07;;;6.75;;
19589;SDS011;12231;42.782;23.388;2023-05-23T04:52:14;11.70;;;6.70;;
19589;SDS011;12231;42.782;23.388;2023-05-23T04:54:43;10.03;;;6.83;;
19589;SDS011;12231;42.782;23.388;2023-05-23T04:57:09;10.77;;;6.80;;
19589;SDS011;12231;42.782;23.388;2023-05-23T04:59:34;9.40;;;6.32;;
19589;SDS011;12231;42.782;23.388;2023-05-23T05:01:59;9.57;;;6.43;;
19589;SDS011;12231;42.782;23.388;2023-05-23T05:04:25;10.00;;;6.22;;
19589;SDS011;12231;42.782;23.388;2023-05-23T05:06:50;8.85;;;6.05;;
19589;SDS011;12231;42.782;23.388;2023-05-23T05:09:16;8.77;;;6.25;;
19589;SDS011;12231;42.782;23.388;2023-05-23T05:11:42;11.68;;;7.28;;
19589;SDS011;12231;42.782;23.388;2023-05-23T05:14:07;13.68;;;7.25;;
19589;SDS011;12231;42.782;23.388;2023-05-23T05:16:32;14.30;;;7.72;;
19589;SDS011;12231;42.782;23.388;2023-05-23T05:18:57;10.90;;;6.53;;
19589;SDS011;12231;42.782;23.388;2023-05-23T05:21:22;13.05;;;7.45;;
19589;SDS011;12231;42.782;23.388;2023-05-23T05:23:48;16.60;;;9.60;;
19589;SDS011;12231;42.782;23.388;2023-05-23T05:26:13;11.77;;;8.13;;
19589;SDS011;12231;42.782;23.388;2023-05-23T05:28:38;11.50;;;6.97;;
19589;SDS011;12231;42.782;23.388;2023-05-23T05:31:05;11.25;;;7.18;;
19589;SDS011;12231;42.782;23.388;2023-05-23T05:33:30;15.07;;;7.45;;
19589;SDS011;12231;42.782;23.388;2023-05-23T05:36:00;9.75;;;6.82;;
19589;SDS011;12231;42.782;23.388;2023-05-23T05:38:26;11.30;;;6.80;;
19589;SDS011;12231;42.782;23.388;2023-05-23T05:40:51;10.00;;;6.95;;
19589;SDS011;12231;42.782;23.388;2023-05-23T05:43:16;12.55;;;7.15;;
19589;SDS011;12231;42.782;23.388;2023-05-23T05:45:41;11.52;;;7.07;;
19589;SDS011;12231;42.782;23.388;2023-05-23T05:48:07;11.82;;;6.38;;
19589;SDS011;12231;42.782;23.388;2023-05-23T05:50:32;11.98;;;7.15;;
19589;SDS011;12231;42.782;23.388;2023-05-23T05:52:58;9.48;;;6.60;;
19589;SDS011;12231;42.782;23.388;2023-05-23T05:55:23;9.75;;;6.55;;
19589;SDS011;12231;42.782;23.388;2023-05-23T05:57:48;12.20;;;6.07;;
19589;SDS011;12231;42.782;23.388;2023-05-23T06:00:13;10.75;;;6.95;;
19589;SDS011;12231;42.782;23.388;2023-05-23T06:02:42;11.07;;;7.25;;
19589;SDS011;12231;42.782;23.388;2023-05-23T06:05:08;12.98;;;7.60;;
19589;SDS011;12231;42.782;23.388;2023-05-23T06:07:36;27.00;;;17.27;;
19589;SDS011;12231;42.782;23.388;2023-05-23T06:10:01;15.15;;;9.00;;
19589;SDS011;12231;42.782;23.388;2023-05-23T06:12:27;14.45;;;7.15;;
19589;SDS011;12231;42.782;23.388;2023-05-23T06:14:52;11.25;;;7.53;;
19589;SDS011;12231;42.782;23.388;2023-05-23T06:17:18;12.13;;;7.88;;
19589;SDS011;12231;42.782;23.388;2023-05-23T06:19:43;10.27;;;6.75;;
19589;SDS011;12231;42.782;23.388;2023-05-23T06:22:08;8.88;;;6.10;;
19589;SDS011;12231;42.782;23.388;2023-05-23T06:24:33;11.30;;;6.90;;
19589;SDS011;12231;42.782;23.388;2023-05-23T06:26:59;8.07;;;6.50;;
19589;SDS011;12231;42.782;23.388;2023-05-23T06:29:24;9.88;;;6.80;;
19589;SDS011;12231;42.782;23.388;2023-05-23T06:31:49;8.57;;;6.18;;
19589;SDS011;12231;42.782;23.388;2023-05-23T06:34:15;13.35;;;7.05;;
19589;SDS011;12231;42.782;23.388;2023-05-23T06:36:40;10.48;;;6.38;;
19589;SDS011;12231;42.782;23.388;2023-05-23T06:39:06;10.77;;;7.30;;
19589;SDS011;12231;42.782;23.388;2023-05-23T06:41:34;11.40;;;7.35;;
19589;SDS011;12231;42.782;23.388;2023-05-23T06:43:59;11.35;;;7.05;;
19589;SDS011;12231;42.782;23.388;2023-05-23T06:46:24;12.60;;;7.28;;
19589;SDS011;12231;42.782;23.388;2023-05-23T06:48:49;11.55;;;7.03;;
19589;SDS011;12231;42.782;23.388;2023-05-23T06:51:15;10.05;;;7.00;;
19589;SDS011;12231;42.782;23.388;2023-05-23T06:53:40;9.32;;;6.22;;
19589;SDS011;12231;42.782;23.388;2023-05-23T06:56:05;11.82;;;8.07;;
19589;SDS011;12231;42.782;23.388;2023-05-23T06:58:31;13.38;;;7.57;;
19589;SDS011;12231;42.782;23.388;2023-05-23T07:00:56;12.35;;;7.53;;
19589;SDS011;12231;42.782;23.388;2023-05-23T07:03:21;10.18;;;6.55;;
19589;SDS011;12231;42.782;23.388;2023-05-23T07:05:46;12.15;;;7.32;;
19589;SDS011;12231;42.782;23.388;2023-05-23T07:08:11;10.90;;;7.13;;
19589;SDS011;12231;42.782;23.388;2023-05-23T07:10:37;12.80;;;7.85;;
19589;SDS011;12231;42.782;23.388;2023-05-23T07:13:05;11.00;;;7.32;;
19589;SDS011;12231;42.782;23.388;2023-05-23T07:15:30;14.00;;;8.10;;
19589;SDS011;12231;42.782;23.388;2023-05-23T07:17:55;12.02;;;7.47;;
19589;SDS011;12231;42.782;23.388;2023-05-23T07:20:20;12.98;;;7.57;;
19589;SDS011;12231;42.782;23.388;2023-05-23T07:22:46;12.98;;;8.02;;
19589;SDS011;12231;42.782;23.388;2023-05-23T07:25:11;12.10;;;8.02;;
19589;SDS011;12231;42.782;23.388;2023-05-23T07:27:36;9.85;;;7.45;;
19589;SDS011;12231;42.782;23.388;2023-05-23T07:30:01;10.52;;;7.15;;
19589;SDS011;12231;42.782;23.388;2023-05-23T07:32:27;10.65;;;7.32;;
19589;SDS011;12231;42.782;23.388;2023-05-23T07:34:52;11.98;;;7.63;;
19589;SDS011;12231;42.782;23.388;2023-05-23T07:37:17;10.27;;;7.53;;
19589;SDS011;12231;42.782;23.388;2023-05-23T07:39:43;10.55;;;8.00;;
19589;SDS011;12231;42.782;23.388;2023-05-23T07:42:08;12.15;;;8.13;;
19589;SDS011;12231;42.782;23.388;2023-05-23T07:44:33;9.18;;;5.78;;
19589;SDS011;12231;42.782;23.388;2023-05-23T07:46:58;11.75;;;7.95;;
19589;SDS011;12231;42.782;23.388;2023-05-23T07:49:24;9.45;;;6.75;;
19589;SDS011;12231;42.782;23.388;2023-05-23T07:51:49;7.82;;;6.00;;
19589;SDS011;12231;42.782;23.388;2023-05-23T07:54:14;10.30;;;7.55;;
19589;SDS011;12231;42.782;23.388;2023-05-23T07:56:41;10.30;;;7.65;;
19589;SDS011;12231;42.782;23.388;2023-05-23T07:59:07;9.27;;;6.25;;
19589;SDS011;12231;42.782;23.388;2023-05-23T08:01:39;9.75;;;7.55;;
19589;SDS011;12231;42.782;23.388;2023-05-23T08:04:04;12.43;;;7.40;;
19589;SDS011;12231;42.782;23.388;2023-05-23T08:06:32;9.85;;;7.88;;
19589;SDS011;12231;42.782;23.388;2023-05-23T08:09:01;10.50;;;8.25;;
19589;SDS011;12231;42.782;23.388;2023-05-23T08:11:26;13.30;;;8.88;;
19589;SDS011;12231;42.782;23.388;2023-05-23T08:13:54;10.32;;;7.88;;
19589;SDS011;12231;42.782;23.388;2023-05-23T08:16:19;10.52;;;8.13;;
19589;SDS011;12231;42.782;23.388;2023-05-23T08:18:46;10.80;;;8.13;;
19589;SDS011;12231;42.782;23.388;2023-05-23T08:21:12;12.10;;;7.97;;
19589;SDS011;12231;42.782;23.388;2023-05-23T08:23:37;13.73;;;7.72;;
19589;SDS011;12231;42.782;23.388;2023-05-23T08:26:02;10.82;;;7.57;;
19589;SDS011;12231;42.782;23.388;2023-05-23T08:28:27;10.63;;;8.15;;
19589;SDS011;12231;42.782;23.388;2023-05-23T08:30:53;8.48;;;7.47;;
19589;SDS011;12231;42.782;23.388;2023-05-23T08:33:18;8.13;;;7.32;;
19589;SDS011;12231;42.782;23.388;2023-05-23T08:35:43;8.48;;;6.93;;
19589;SDS011;12231;42.782;23.388;2023-05-23T08:38:09;12.35;;;7.55;;
19589;SDS011;12231;42.782;23.388;2023-05-23T08:40:34;11.02;;;7.90;;
19589;SDS011;12231;42.782;23.388;2023-05-23T08:43:00;10.88;;;8.18;;
19589;SDS011;12231;42.782;23.388;2023-05-23T08:45:26;10.18;;;7.50;;
19589;SDS011;12231;42.782;23.388;2023-05-23T08:47:53;9.48;;;8.30;;
19589;SDS011;12231;42.782;23.388;2023-05-23T08:50:20;11.88;;;9.65;;
19589;SDS011;12231;42.782;23.388;2023-05-23T08:52:55;11.90;;;8.27;;
19589;SDS011;12231;42.782;23.388;2023-05-23T08:55:22;10.63;;;7.20;;
19589;SDS011;12231;42.782;23.388;2023-05-23T08:57:48;11.95;;;7.93;;
19589;SDS011;12231;42.782;23.388;2023-05-23T09:00:13;8.25;;;7.20;;
19589;SDS011;12231;42.782;23.388;2023-05-23T09:02:39;11.05;;;8.35;;
19589;SDS011;12231;42.782;23.388;2023-05-23T09:05:07;7.93;;;6.78;;
19589;SDS011;12231;42.782;23.388;2023-05-23T09:07:33;9.27;;;7.57;;
19589;SDS011;12231;42.782;23.388;2023-05-23T09:09:58;8.77;;;6.47;;
19589;SDS011;12231;42.782;23.388;2023-05-23T09:12:24;7.80;;;7.00;;
19589;SDS011;12231;42.782;23.388;2023-05-23T09:14:49;8.35;;;6.90;;
19589;SDS011;12231;42.782;23.388;2023-05-23T09:17:18;9.45;;;6.72;;
19589;SDS011;12231;42.782;23.388;2023-05-23T09:19:43;8.70;;;6.95;;
19589;SDS011;12231;42.782;23.388;2023-05-23T09:22:10;8.45;;;7.50;;
19589;SDS011;12231;42.782;23.388;2023-05-23T09:24:35;10.88;;;6.60;;
19589;SDS011;12231;42.782;23.388;2023-05-23T09:27:01;8.63;;;6.35;;
19589;SDS011;12231;42.782;23.388;2023-05-23T09:29:27;6.38;;;5.60;;
19589;SDS011;12231;42.782;23.388;2023-05-23T09:31:52;9.25;;;5.57;;
19589;SDS011;12231;42.782;23.388;2023-05-23T09:34:23;6.63;;;5.75;;
19589;SDS011;12231;42.782;23.388;2023-05-23T09:36:48;5.67;;;4.83;;
19589;SDS011;12231;42.782;23.388;2023-05-23T09:39:14;5.85;;;4.88;;
19589;SDS011;12231;42.782;23.388;2023-05-23T09:41:39;5.65;;;4.30;;
19589;SDS011;12231;42.782;23.388;2023-05-23T09:44:06;5.05;;;4.55;;
19589;SDS011;12231;42.782;23.388;2023-05-23T09:46:34;6.20;;;4.55;;
19589;SDS011;12231;42.782;23.388;2023-05-23T09:48:59;4.88;;;4.28;;
19589;SDS011;12231;42.782;23.388;2023-05-23T09:51:24;5.35;;;4.30;;
19589;SDS011;12231;42.782;23.388;2023-05-23T09:53:50;5.70;;;4.55;;
19589;SDS011;12231;42.782;23.388;2023-05-23T09:56:16;5.90;;;4.38;;
19589;SDS011;12231;42.782;23.388;2023-05-23T09:58:48;7.28;;;4.35;;
19589;SDS011;12231;42.782;23.388;2023-05-23T10:01:14;5.38;;;3.33;;
19589;SDS011;12231;42.782;23.388;2023-05-23T10:03:49;4.65;;;4.10;;
19589;SDS011;12231;42.782;23.388;2023-05-23T10:08:44;3.78;;;3.28;;
19589;SDS011;12231;42.782;23.388;2023-05-23T10:13:37;5.43;;;3.80;;
19589;SDS011;12231;42.782;23.388;2023-05-23T10:16:21;4.03;;;3.70;;
19589;SDS011;12231;42.782;23.388;2023-05-23T10:18:48;4.20;;;3.60;;
19589;SDS011;12231;42.782;23.388;2023-05-23T10:21:18;5.97;;;3.92;;
19589;SDS011;12231;42.782;23.388;2023-05-23T10:23:45;3.97;;;3.40;;
19589;SDS011;12231;42.782;23.388;2023-05-23T10:26:11;3.63;;;3.20;;
19589;SDS011;12231;42.782;23.388;2023-05-23T10:28:37;4.60;;;3.38;;
19589;SDS011;12231;42.782;23.388;2023-05-23T10:31:03;4.60;;;3.80;;
19589;SDS011;12231;42.782;23.388;2023-05-23T10:33:30;4.05;;;3.38;;
19589;SDS011;12231;42.782;23.388;2023-05-23T10:36:03;4.18;;;3.75;;
19589;SDS011;12231;42.782;23.388;2023-05-23T10:38:35;3.42;;;3.08;;
19589;SDS011;12231;42.782;23.388;2023-05-23T10:46:14;3.25;;;3.00;;
19589;SDS011;12231;42.782;23.388;2023-05-23T10:48:43;3.42;;;3.13;;
19589;SDS011;12231;42.782;23.388;2023-05-23T10:51:09;4.85;;;3.42;;
19589;SDS011;12231;42.782;23.388;2023-05-23T10:53:35;3.63;;;3.08;;
19589;SDS011;12231;42.782;23.388;2023-05-23T10:56:01;3.30;;;3.00;;
19589;SDS011;12231;42.782;23.388;2023-05-23T10:58:28;3.35;;;3.08;;
19589;SDS011;12231;42.782;23.388;2023-05-23T11:00:55;3.17;;;2.80;;
19589;SDS011;12231;42.782;23.388;2023-05-23T11:03:31;2.95;;;2.70;;
19589;SDS011;12231;42.782;23.388;2023-05-23T11:05:57;3.88;;;2.80;;
19589;SDS011;12231;42.782;23.388;2023-05-23T11:08:23;4.65;;;3.05;;
19589;SDS011;12231;42.782;23.388;2023-05-23T11:10:52;3.70;;;2.75;;
19589;SDS011;12231;42.782;23.388;2023-05-23T11:13:18;4.05;;;3.10;;
19589;SDS011;12231;42.782;23.388;2023-05-23T11:15:44;6.80;;;3.13;;
19589;SDS011;12231;42.782;23.388;2023-05-23T11:18:10;7.32;;;3.10;;
19589;SDS011;12231;42.782;23.388;2023-05-23T11:20:43;3.90;;;3.10;;
19589;SDS011;12231;42.782;23.388;2023-05-23T11:23:08;5.40;;;2.92;;
19589;SDS011;12231;42.782;23.388;2023-05-23T11:28:06;5.55;;;3.08;;
19589;SDS011;12231;42.782;23.388;2023-05-23T11:30:31;3.40;;;3.10;;
19589;SDS011;12231;42.782;23.388;2023-05-23T11:32:57;4.75;;;2.50;;
19589;SDS011;12231;42.782;23.388;2023-05-23T11:35:23;4.38;;;3.03;;
19589;SDS011;12231;42.782;23.388;2023-05-23T11:37:48;8.45;;;3.30;;
19589;SDS011;12231;42.782;23.388;2023-05-23T11:40:24;4.03;;;2.80;;
19589;SDS011;12231;42.782;23.388;2023-05-23T11:42:50;5.20;;;2.72;;
19589;SDS011;12231;42.782;23.388;2023-05-23T11:45:16;4.35;;;2.70;;
19589;SDS011;12231;42.782;23.388;2023-05-23T11:47:43;2.75;;;2.50;;
19589;SDS011;12231;42.782;23.388;2023-05-23T11:50:08;6.38;;;3.05;;
19589;SDS011;12231;42.782;23.388;2023-05-23T11:52:34;2.83;;;2.40;;
19589;SDS011;12231;42.782;23.388;2023-05-23T11:54:59;3.15;;;2.75;;
19589;SDS011;12231;42.782;23.388;2023-05-23T11:57:28;3.30;;;2.60;;
19589;SDS011;12231;42.782;23.388;2023-05-23T11:59:54;3.35;;;3.05;;
19589;SDS011;12231;42.782;23.388;2023-05-23T12:02:20;4.40;;;2.92;;
19589;SDS011;12231;42.782;23.388;2023-05-23T12:04:47;2.33;;;2.13;;
19589;SDS011;12231;42.782;23.388;2023-05-23T12:07:13;4.57;;;2.55;;
19589;SDS011;12231;42.782;23.388;2023-05-23T12:09:41;4.50;;;2.55;;
19589;SDS011;12231;42.782;23.388;2023-05-23T12:12:07;2.67;;;2.42;;
19589;SDS011;12231;42.782;23.388;2023-05-23T12:14:32;2.35;;;2.08;;
19589;SDS011;12231;42.782;23.388;2023-05-23T12:16:58;2.70;;;2.50;;
19589;SDS011;12231;42.782;23.388;2023-05-23T12:19:23;2.50;;;2.25;;
19589;SDS011;12231;42.782;23.388;2023-05-23T12:21:49;3.47;;;3.08;;
19589;SDS011;12231;42.782;23.388;2023-05-23T12:24:14;2.95;;;2.53;;
19589;SDS011;12231;42.782;23.388;2023-05-23T12:26:57;2.65;;;2.45;;
19589;SDS011;12231;42.782;23.388;2023-05-23T12:29:35;2.60;;;2.40;;
19589;SDS011;12231;42.782;23.388;2023-05-23T12:32:02;4.18;;;3.03;;
19589;SDS011;12231;42.782;23.388;2023-05-23T12:34:28;2.60;;;2.25;;
19589;SDS011;12231;42.782;23.388;2023-05-23T12:36:54;3.25;;;2.40;;
19589;SDS011;12231;42.782;23.388;2023-05-23T12:39:28;3.20;;;2.45;;
19589;SDS011;12231;42.782;23.388;2023-05-23T12:41:54;2.58;;;2.20;;
19589;SDS011;12231;42.782;23.388;2023-05-23T12:44:22;2.42;;;2.22;;
19589;SDS011;12231;42.782;23.388;2023-05-23T12:46:48;3.42;;;2.50;;
19589;SDS011;12231;42.782;23.388;2023-05-23T12:49:13;2.38;;;2.17;;
19589;SDS011;12231;42.782;23.388;2023-05-23T12:51:39;2.65;;;2.45;;
19589;SDS011;12231;42.782;23.388;2023-05-23T12:54:04;2.45;;;2.25;;
19589;SDS011;12231;42.782;23.388;2023-05-23T12:56:30;4.28;;;2.22;;
19589;SDS011;12231;42.782;23.388;2023-05-23T12:58:55;4.95;;;2.75;;
19589;SDS011;12231;42.782;23.388;2023-05-23T13:01:21;2.67;;;2.40;;
19589;SDS011;12231;42.782;23.388;2023-05-23T13:03:46;2.35;;;2.15;;
19589;SDS011;12231;42.782;23.388;2023-05-23T13:06:12;3.00;;;2.70;;
19589;SDS011;12231;42.782;23.388;2023-05-23T13:08:37;3.03;;;2.50;;
19589;SDS011;12231;42.782;23.388;2023-05-23T13:11:02;3.65;;;2.65;;
19589;SDS011;12231;42.782;23.388;2023-05-23T13:13:28;2.38;;;2.17;;
19589;SDS011;12231;42.782;23.388;2023-05-23T13:15:54;3.05;;;2.40;;
19589;SDS011;12231;42.782;23.388;2023-05-23T13:18:20;4.95;;;2.50;;
19589;SDS011;12231;42.782;23.388;2023-05-23T13:20:45;4.20;;;2.33;;
19589;SDS011;12231;42.782;23.388;2023-05-23T13:23:10;3.40;;;2.15;;
19589;SDS011;12231;42.782;23.388;2023-05-23T13:25:36;3.95;;;2.33;;
19589;SDS011;12231;42.782;23.388;2023-05-23T13:28:01;2.47;;;2.10;;
19589;SDS011;12231;42.782;23.388;2023-05-23T13:30:26;2.53;;;2.30;;
19589;SDS011;12231;42.782;23.388;2023-05-23T13:32:52;2.40;;;2.20;;
19589;SDS011;12231;42.782;23.388;2023-05-23T13:35:17;2.55;;;2.17;;
19589;SDS011;12231;42.782;23.388;2023-05-23T13:37:42;2.08;;;1.88;;
19589;SDS011;12231;42.782;23.388;2023-05-23T13:40:10;2.85;;;2.60;;
19589;SDS011;12231;42.782;23.388;2023-05-23T13:42:36;4.25;;;2.65;;
19589;SDS011;12231;42.782;23.388;2023-05-23T13:45:01;2.78;;;2.10;;
19589;SDS011;12231;42.782;23.388;2023-05-23T13:47:26;2.65;;;2.08;;
19589;SDS011;12231;42.782;23.388;2023-05-23T13:49:51;3.53;;;2.50;;
19589;SDS011;12231;42.782;23.388;2023-05-23T13:52:17;3.45;;;2.67;;
19589;SDS011;12231;42.782;23.388;2023-05-23T13:54:43;5.80;;;2.80;;
19589;SDS011;12231;42.782;23.388;2023-05-23T13:57:08;2.63;;;2.20;;
19589;SDS011;12231;42.782;23.388;2023-05-23T13:59:34;3.97;;;2.60;;
19589;SDS011;12231;42.782;23.388;2023-05-23T14:01:59;2.10;;;2.00;;
19589;SDS011;12231;42.782;23.388;2023-05-23T14:04:24;2.55;;;2.08;;
19589;SDS011;12231;42.782;23.388;2023-05-23T14:06:50;2.33;;;2.20;;
19589;SDS011;12231;42.782;23.388;2023-05-23T14:09:15;2.35;;;2.15;;
19589;SDS011;12231;42.782;23.388;2023-05-23T14:11:40;4.00;;;2.33;;
19589;SDS011;12231;42.782;23.388;2023-05-23T14:14:06;2.72;;;2.53;;
19589;SDS011;12231;42.782;23.388;2023-05-23T14:16:31;2.33;;;2.08;;
19589;SDS011;12231;42.782;23.388;2023-05-23T14:18:56;2.30;;;2.10;;
19589;SDS011;12231;42.782;23.388;2023-05-23T14:21:21;3.28;;;2.33;;
19589;SDS011;12231;42.782;23.388;2023-05-23T14:23:46;3.65;;;2.47;;
19589;SDS011;12231;42.782;23.388;2023-05-23T14:26:12;2.63;;;2.40;;
19589;SDS011;12231;42.782;23.388;2023-05-23T14:28:37;2.72;;;2.30;;
19589;SDS011;12231;42.782;23.388;2023-05-23T14:31:02;4.90;;;2.35;;
19589;SDS011;12231;42.782;23.388;2023-05-23T14:33:27;4.35;;;2.40;;
19589;SDS011;12231;42.782;23.388;2023-05-23T14:35:53;5.07;;;2.25;;
19589;SDS011;12231;42.782;23.388;2023-05-23T14:38:18;2.35;;;1.92;;
19589;SDS011;12231;42.782;23.388;2023-05-23T14:40:44;2.90;;;2.38;;